createdAt,value
2018-05-11T00:01:01.430Z,0
2018-05-11T00:02:10.344Z,0
2018-05-11T00:03:18.987Z,0
2018-05-11T00:04:27.624Z,0
2018-05-11T00:05:36.535Z,0
2018-05-11T00:06:45.175Z,0
2018-05-11T00:07:53.811Z,0
2018-05-11T00:09:02.447Z,0
2018-05-11T00:10:11.097Z,0
2018-05-11T00:11:19.738Z,0
2018-05-11T00:12:28.381Z,0
2018-05-11T00:13:37.290Z,0
2018-05-11T00:14:45.937Z,0
2018-05-11T00:15:54.577Z,0
2018-05-11T00:17:03.227Z,0
2018-05-11T00:18:11.859Z,0
2018-05-11T00:19:20.502Z,0
2018-05-11T00:20:29.148Z,0
2018-05-11T00:21:37.794Z,0
2018-05-11T00:22:46.441Z,0
2018-05-11T00:23:55.078Z,0
2018-05-11T00:25:03.719Z,0
2018-05-11T00:26:12.362Z,0
2018-05-11T00:27:21.006Z,0
2018-05-11T00:28:29.908Z,0
2018-05-11T00:29:38.551Z,0
2018-05-11T00:30:47.193Z,0
2018-05-11T00:31:55.841Z,0
2018-05-11T00:33:04.474Z,0
2018-05-11T00:34:13.116Z,0
2018-05-11T00:35:22.021Z,0
2018-05-11T00:36:30.656Z,0
2018-05-11T00:37:39.298Z,0
2018-05-11T00:38:48.210Z,0
2018-05-11T00:39:56.854Z,0
2018-05-11T00:41:05.498Z,0
2018-05-11T00:42:14.134Z,0
2018-05-11T00:43:22.777Z,0
2018-05-11T00:44:31.420Z,0
2018-05-11T00:45:40.340Z,0
2018-05-11T00:46:48.978Z,0
2018-05-11T00:47:57.617Z,0
2018-05-11T00:49:06.257Z,0
2018-05-11T00:50:14.908Z,0
2018-05-11T00:51:23.543Z,0
2018-05-11T00:52:32.187Z,0
2018-05-11T00:53:41.089Z,0
2018-05-11T00:54:49.732Z,0
2018-05-11T00:55:58.371Z,0
2018-05-11T00:57:07.015Z,0
2018-05-11T00:58:15.652Z,0
2018-05-11T00:59:24.291Z,0
2018-05-11T01:00:32.937Z,0
2018-05-11T01:01:41.578Z,0
2018-05-11T01:02:50.217Z,0
2018-05-11T01:03:58.855Z,0
2018-05-11T01:05:07.496Z,0
2018-05-11T01:06:16.134Z,0
2018-05-11T01:07:25.041Z,0
2018-05-11T01:08:33.681Z,0
2018-05-11T01:09:42.326Z,0
2018-05-11T01:10:50.965Z,0
2018-05-11T01:11:59.609Z,0
2018-05-11T01:13:08.247Z,0
2018-05-11T01:14:16.888Z,0
2018-05-11T01:15:25.530Z,0
2018-05-11T01:16:34.436Z,0
2018-05-11T01:17:43.080Z,0
2018-05-11T01:18:51.979Z,0
2018-05-11T01:20:00.621Z,0
2018-05-11T01:21:09.263Z,0
2018-05-11T01:22:17.909Z,0
2018-05-11T01:23:26.546Z,0
2018-05-11T01:24:35.188Z,0
2018-05-11T01:25:43.828Z,0
2018-05-11T01:26:52.474Z,0
2018-05-11T01:28:01.374Z,0
2018-05-11T01:29:10.019Z,0
2018-05-11T01:30:18.658Z,0
2018-05-11T01:31:27.307Z,0
2018-05-11T01:32:35.944Z,0
2018-05-11T01:33:44.585Z,0
2018-05-11T01:34:53.226Z,0
2018-05-11T01:36:01.864Z,0
2018-05-11T01:37:10.514Z,0
2018-05-11T01:38:19.153Z,0
2018-05-11T01:39:28.065Z,0
2018-05-11T01:40:36.694Z,0
2018-05-11T01:41:45.345Z,0
2018-05-11T01:42:53.982Z,0
2018-05-11T01:44:02.626Z,0
2018-05-11T01:45:11.535Z,0
2018-05-11T01:46:20.181Z,0
2018-05-11T01:47:29.082Z,0
2018-05-11T01:48:38.001Z,0
2018-05-11T01:49:46.623Z,0
2018-05-11T01:50:55.263Z,0
2018-05-11T01:52:03.908Z,0
2018-05-11T01:53:12.552Z,0
2018-05-11T01:54:21.196Z,0
2018-05-11T01:55:29.829Z,0
2018-05-11T01:56:38.474Z,0
2018-05-11T01:57:47.112Z,0
2018-05-11T01:58:55.762Z,0
2018-05-11T02:00:04.395Z,0
2018-05-11T02:01:13.040Z,0
2018-05-11T02:02:21.676Z,0
2018-05-11T02:03:30.324Z,0
2018-05-11T02:04:38.956Z,0
2018-05-11T02:05:47.602Z,0
2018-05-11T02:06:56.239Z,0
2018-05-11T02:08:05.156Z,0
2018-05-11T02:09:13.794Z,0
2018-05-11T02:10:22.429Z,0
2018-05-11T02:11:31.071Z,0
2018-05-11T02:12:39.703Z,0
2018-05-11T02:13:48.354Z,0
2018-05-11T02:14:56.989Z,0
2018-05-11T02:16:05.634Z,0
2018-05-11T02:17:14.265Z,0
2018-05-11T02:18:22.913Z,0
2018-05-11T02:19:31.548Z,0
2018-05-11T02:20:40.194Z,0
2018-05-11T02:21:48.842Z,0
2018-05-11T02:22:57.475Z,0
2018-05-11T02:24:06.387Z,0
2018-05-11T02:25:15.029Z,0
2018-05-11T02:26:23.662Z,0
2018-05-11T02:27:32.308Z,0
2018-05-11T02:28:40.954Z,0
2018-05-11T02:29:49.596Z,0
2018-05-11T02:30:58.243Z,0
2018-05-11T02:32:06.875Z,0
2018-05-11T02:33:15.793Z,0
2018-05-11T02:34:24.703Z,0
2018-05-11T02:35:33.338Z,0
2018-05-11T02:36:41.994Z,0
2018-05-11T02:37:50.893Z,0
2018-05-11T02:38:59.533Z,0
2018-05-11T02:40:08.170Z,0
2018-05-11T02:41:16.818Z,0
2018-05-11T02:42:25.455Z,0
2018-05-11T02:43:34.362Z,0
2018-05-11T02:44:43.268Z,0
2018-05-11T02:45:51.918Z,0
2018-05-11T02:47:00.829Z,0
2018-05-11T02:48:09.475Z,0
2018-05-11T02:49:18.114Z,0
2018-05-11T02:50:27.015Z,0
2018-05-11T02:51:35.657Z,0
2018-05-11T02:52:44.578Z,0
2018-05-11T02:53:53.222Z,0
2018-05-11T02:55:01.857Z,0
2018-05-11T02:56:10.504Z,0
2018-05-11T02:57:19.677Z,0
2018-05-11T02:58:28.330Z,0
2018-05-11T02:59:36.969Z,0
2018-05-11T03:00:45.882Z,0
2018-05-11T03:01:54.537Z,0
2018-05-11T03:03:03.451Z,0
2018-05-11T03:04:12.431Z,0
2018-05-11T03:05:21.701Z,0
2018-05-11T03:06:30.678Z,0
2018-05-11T03:07:39.402Z,0
2018-05-11T03:08:48.339Z,0
2018-05-11T03:09:56.983Z,0
2018-05-11T03:11:05.912Z,0
2018-05-11T03:12:14.531Z,0
2018-05-11T03:13:23.458Z,0
2018-05-11T03:14:32.388Z,0
2018-05-11T03:15:41.038Z,0
2018-05-11T03:16:49.673Z,0
2018-05-11T03:17:58.317Z,0
2018-05-11T03:19:06.957Z,0
2018-05-11T03:20:15.599Z,0
2018-05-11T03:21:24.498Z,0
2018-05-11T03:22:33.141Z,0
2018-05-11T03:23:41.780Z,0
2018-05-11T03:24:50.423Z,0
2018-05-11T03:25:59.069Z,0
2018-05-11T03:27:07.706Z,0
2018-05-11T03:28:16.347Z,0
2018-05-11T03:29:25.266Z,0
2018-05-11T03:30:33.925Z,0
2018-05-11T03:31:42.829Z,0
2018-05-11T03:32:51.474Z,0
2018-05-11T03:34:00.110Z,0
2018-05-11T03:35:08.767Z,0
2018-05-11T03:36:17.454Z,0
2018-05-11T03:37:26.040Z,0
2018-05-11T03:38:34.680Z,5
2018-05-11T03:39:43.591Z,5
2018-05-11T03:40:52.498Z,5
2018-05-11T03:42:01.130Z,5
2018-05-11T03:43:09.780Z,5
2018-05-11T03:44:18.417Z,5
2018-05-11T03:45:27.066Z,5
2018-05-11T03:46:35.700Z,5
2018-05-11T03:47:44.616Z,5
2018-05-11T03:48:53.248Z,10
2018-05-11T03:50:01.898Z,10
2018-05-11T03:51:10.534Z,10
2018-05-11T03:52:19.179Z,10
2018-05-11T03:53:27.811Z,10
2018-05-11T03:54:36.460Z,10
2018-05-11T03:55:45.099Z,10
2018-05-11T03:56:53.742Z,10
2018-05-11T03:58:02.373Z,10
2018-05-11T03:59:11.017Z,10
2018-05-11T04:00:19.662Z,10
2018-05-11T04:01:28.304Z,10
2018-05-11T04:02:36.951Z,10
2018-05-11T04:03:45.586Z,10
2018-05-11T04:04:54.229Z,10
2018-05-11T04:06:02.869Z,15
2018-05-11T04:07:11.792Z,15
2018-05-11T04:08:20.423Z,20
2018-05-11T04:09:29.341Z,20
2018-05-11T04:10:37.978Z,20
2018-05-11T04:11:46.633Z,25
2018-05-11T04:12:55.526Z,25
2018-05-11T04:14:04.169Z,25
2018-05-11T04:15:12.808Z,25
2018-05-11T04:16:21.462Z,30
2018-05-11T04:17:30.103Z,35
2018-05-11T04:18:38.736Z,35
2018-05-11T04:19:47.375Z,35
2018-05-11T04:20:56.281Z,30
2018-05-11T04:22:04.933Z,30
2018-05-11T04:23:13.569Z,30
2018-05-11T04:24:22.215Z,30
2018-05-11T04:25:30.848Z,30
2018-05-11T04:26:39.492Z,35
2018-05-11T04:27:48.127Z,30
2018-05-11T04:28:56.773Z,35
2018-05-11T04:30:05.420Z,30
2018-05-11T04:31:14.320Z,30
2018-05-11T04:32:22.967Z,30
2018-05-11T04:33:31.616Z,30
2018-05-11T04:34:40.526Z,30
2018-05-11T04:35:49.170Z,30
2018-05-11T04:36:58.073Z,35
2018-05-11T04:38:06.709Z,35
2018-05-11T04:39:15.348Z,35
2018-05-11T04:40:24.002Z,35
2018-05-11T04:41:32.639Z,35
2018-05-11T04:42:41.287Z,35
2018-05-11T04:43:49.921Z,35
2018-05-11T04:44:58.572Z,40
2018-05-11T04:46:07.210Z,40
2018-05-11T04:47:15.856Z,45
2018-05-11T04:48:24.489Z,45
2018-05-11T04:49:33.147Z,45
2018-05-11T04:50:41.784Z,50
2018-05-11T04:51:50.435Z,50
2018-05-11T04:52:59.067Z,50
2018-05-11T04:54:07.711Z,50
2018-05-11T04:55:16.355Z,50
2018-05-11T04:56:25.000Z,50
2018-05-11T04:57:33.642Z,50
2018-05-11T04:58:42.274Z,55
2018-05-11T04:59:50.926Z,55
2018-05-11T05:00:59.564Z,55
2018-05-11T05:02:08.215Z,50
2018-05-11T05:03:16.849Z,50
2018-05-11T05:04:25.510Z,50
2018-05-11T05:05:34.131Z,50
2018-05-11T05:06:42.785Z,50
2018-05-11T05:07:51.420Z,55
2018-05-11T05:09:00.064Z,60
2018-05-11T05:10:08.701Z,65
2018-05-11T05:11:17.351Z,65
2018-05-11T05:12:26.046Z,70
2018-05-11T05:13:34.628Z,75
2018-05-11T05:14:43.268Z,75
2018-05-11T05:15:51.906Z,75
2018-05-11T05:17:00.557Z,75
2018-05-11T05:18:09.194Z,70
2018-05-11T05:19:17.855Z,65
2018-05-11T05:20:26.483Z,65
2018-05-11T05:21:35.401Z,60
2018-05-11T05:22:44.037Z,55
2018-05-11T05:23:52.695Z,55
2018-05-11T05:25:01.320Z,50
2018-05-11T05:26:09.970Z,50
2018-05-11T05:27:18.612Z,50
2018-05-11T05:28:27.254Z,50
2018-05-11T05:29:35.892Z,50
2018-05-11T05:30:44.536Z,50
2018-05-11T05:31:53.179Z,45
2018-05-11T05:33:02.441Z,50
2018-05-11T05:34:11.030Z,55
2018-05-11T05:35:19.667Z,60
2018-05-11T05:36:28.310Z,60
2018-05-11T05:37:36.949Z,65
2018-05-11T05:38:45.598Z,65
2018-05-11T05:39:54.237Z,70
2018-05-11T05:41:02.888Z,70
2018-05-11T05:42:11.790Z,65
2018-05-11T05:43:20.439Z,70
2018-05-11T05:44:29.343Z,75
2018-05-11T05:45:38.254Z,75
2018-05-11T05:46:46.893Z,85
2018-05-11T05:47:55.538Z,85
2018-05-11T05:49:04.178Z,85
2018-05-11T05:50:12.825Z,90
2018-05-11T05:51:21.473Z,90
2018-05-11T05:52:30.108Z,85
2018-05-11T05:53:38.762Z,80
2018-05-11T05:54:47.398Z,85
2018-05-11T05:55:56.042Z,95
2018-05-11T05:57:04.678Z,90
2018-05-11T05:58:13.329Z,80
2018-05-11T05:59:22.245Z,75
2018-05-11T06:00:30.888Z,75
2018-05-11T06:01:39.526Z,80
2018-05-11T06:02:48.178Z,85
2018-05-11T06:03:56.819Z,95
2018-05-11T06:05:05.737Z,95
2018-05-11T06:06:14.637Z,85
2018-05-11T06:07:23.283Z,75
2018-05-11T06:08:31.925Z,75
2018-05-11T06:09:40.570Z,75
2018-05-11T06:10:49.229Z,75
2018-05-11T06:11:57.853Z,80
2018-05-11T06:13:06.496Z,75
2018-05-11T06:14:15.138Z,75
2018-05-11T06:15:23.785Z,75
2018-05-11T06:16:32.432Z,70
2018-05-11T06:17:41.088Z,65
2018-05-11T06:18:49.720Z,60
2018-05-11T06:19:58.366Z,65
2018-05-11T06:21:07.005Z,65
2018-05-11T06:22:15.917Z,70
2018-05-11T06:23:24.558Z,80
2018-05-11T06:24:33.206Z,75
2018-05-11T06:25:41.846Z,70
2018-05-11T06:26:50.492Z,65
2018-05-11T06:27:59.131Z,75
2018-05-11T06:29:07.771Z,90
2018-05-11T06:30:16.425Z,105
2018-05-11T06:31:25.062Z,105
2018-05-11T06:32:33.975Z,100
2018-05-11T06:33:42.611Z,90
2018-05-11T06:34:51.268Z,75
2018-05-11T06:35:59.906Z,75
2018-05-11T06:37:08.556Z,80
2018-05-11T06:38:17.188Z,80
2018-05-11T06:39:25.841Z,75
2018-05-11T06:40:34.790Z,75
2018-05-11T06:41:43.399Z,80
2018-05-11T06:42:52.036Z,80
2018-05-11T06:44:00.947Z,90
2018-05-11T06:45:09.864Z,95
2018-05-11T06:46:18.511Z,105
2018-05-11T06:47:27.160Z,115
2018-05-11T06:48:35.802Z,120
2018-05-11T06:49:44.444Z,135
2018-05-11T06:50:53.083Z,140
2018-05-11T06:52:01.736Z,160
2018-05-11T06:53:10.369Z,175
2018-05-11T06:54:19.017Z,180
2018-05-11T06:55:27.657Z,175
2018-05-11T06:56:36.309Z,160
2018-05-11T06:57:44.943Z,165
2018-05-11T06:58:54.125Z,160
2018-05-11T07:00:02.775Z,155
2018-05-11T07:01:11.692Z,145
2018-05-11T07:02:20.681Z,135
2018-05-11T07:03:29.237Z,130
2018-05-11T07:04:37.884Z,130
2018-05-11T07:05:46.524Z,125
2018-05-11T07:06:55.437Z,125
2018-05-11T07:08:04.125Z,125
2018-05-11T07:09:13.059Z,125
2018-05-11T07:10:21.693Z,125
2018-05-11T07:11:30.347Z,125
2018-05-11T07:12:38.986Z,125
2018-05-11T07:13:47.634Z,120
2018-05-11T07:14:56.268Z,115
2018-05-11T07:16:04.919Z,115
2018-05-11T07:17:13.570Z,125
2018-05-11T07:18:22.477Z,120
2018-05-11T07:19:31.612Z,130
2018-05-11T07:20:40.422Z,140
2018-05-11T07:21:49.075Z,155
2018-05-11T07:22:57.983Z,170
2018-05-11T07:24:06.633Z,185
2018-05-11T07:25:15.794Z,185
2018-05-11T07:26:24.441Z,185
2018-05-11T07:27:33.083Z,170
2018-05-11T07:28:41.735Z,150
2018-05-11T07:29:50.638Z,135
2018-05-11T07:30:59.287Z,135
2018-05-11T07:32:07.927Z,135
2018-05-11T07:33:16.578Z,145
2018-05-11T07:34:25.232Z,165
2018-05-11T07:35:33.860Z,180
2018-05-11T07:36:42.504Z,195
2018-05-11T07:37:51.152Z,205
2018-05-11T07:39:00.328Z,220
2018-05-11T07:40:08.977Z,220
2018-05-11T07:41:17.619Z,220
2018-05-11T07:42:26.260Z,225
2018-05-11T07:43:34.911Z,215
2018-05-11T07:44:43.558Z,195
2018-05-11T07:45:52.203Z,190
2018-05-11T07:47:00.843Z,210
2018-05-11T07:48:09.493Z,225
2018-05-11T07:49:18.138Z,225
2018-05-11T07:50:26.787Z,220
2018-05-11T07:51:35.514Z,220
2018-05-11T07:52:44.338Z,225
2018-05-11T07:53:52.980Z,225
2018-05-11T07:55:01.628Z,225
2018-05-11T07:56:10.267Z,230
2018-05-11T07:57:19.177Z,230
2018-05-11T07:58:27.819Z,240
2018-05-11T07:59:36.466Z,240
2018-05-11T08:00:45.164Z,255
2018-05-11T08:01:53.755Z,265
2018-05-11T08:03:02.400Z,270
2018-05-11T08:04:11.044Z,275
2018-05-11T08:05:19.685Z,290
2018-05-11T08:06:28.604Z,290
2018-05-11T08:07:37.242Z,290
2018-05-11T08:08:45.885Z,275
2018-05-11T08:09:54.532Z,260
2018-05-11T08:11:03.177Z,265
2018-05-11T08:12:11.829Z,275
2018-05-11T08:13:20.729Z,290
2018-05-11T08:14:29.781Z,315
2018-05-11T08:15:38.419Z,320
2018-05-11T08:16:47.327Z,330
2018-05-11T08:17:55.970Z,335
2018-05-11T08:19:04.618Z,340
2018-05-11T08:20:13.263Z,315
2018-05-11T08:21:21.969Z,295
2018-05-11T08:22:30.557Z,275
2018-05-11T08:23:39.467Z,265
2018-05-11T08:24:48.117Z,275
2018-05-11T08:25:56.763Z,260
2018-05-11T08:27:05.409Z,260
2018-05-11T08:28:14.065Z,255
2018-05-11T08:29:23.003Z,260
2018-05-11T08:30:31.647Z,295
2018-05-11T08:31:40.290Z,355
2018-05-11T08:32:48.945Z,375
2018-05-11T08:33:57.584Z,340
2018-05-11T08:35:06.232Z,330
2018-05-11T08:36:14.875Z,335
2018-05-11T08:37:23.517Z,255
2018-05-11T08:38:32.170Z,245
2018-05-11T08:39:41.083Z,245
2018-05-11T08:40:49.727Z,265
2018-05-11T08:41:58.365Z,250
2018-05-11T08:43:07.281Z,230
2018-05-11T08:44:15.937Z,230
2018-05-11T08:45:24.585Z,220
2018-05-11T08:46:33.225Z,215
2018-05-11T08:47:41.877Z,250
2018-05-11T08:48:50.520Z,310
2018-05-11T08:49:59.170Z,330
2018-05-11T08:51:07.815Z,340
2018-05-11T08:52:16.461Z,320
2018-05-11T08:53:25.108Z,305
2018-05-11T08:54:33.754Z,295
2018-05-11T08:55:42.402Z,280
2018-05-11T08:56:51.043Z,260
2018-05-11T08:57:59.688Z,245
2018-05-11T08:59:08.335Z,225
2018-05-11T09:00:16.990Z,220
2018-05-11T09:01:25.629Z,220
2018-05-11T09:02:34.273Z,210
2018-05-11T09:03:42.920Z,160
2018-05-11T09:04:51.565Z,155
2018-05-11T09:06:00.208Z,155
2018-05-11T09:07:08.858Z,165
2018-05-11T09:08:17.566Z,185
2018-05-11T09:09:26.153Z,210
2018-05-11T09:10:34.795Z,235
2018-05-11T09:11:43.441Z,225
2018-05-11T09:12:52.345Z,250
2018-05-11T09:14:00.988Z,315
2018-05-11T09:15:09.639Z,325
2018-05-11T09:16:18.823Z,345
2018-05-11T09:17:27.469Z,360
2018-05-11T09:18:36.111Z,340
2018-05-11T09:19:44.762Z,300
2018-05-11T09:20:53.408Z,290
2018-05-11T09:22:02.132Z,295
2018-05-11T09:23:11.065Z,300
2018-05-11T09:24:19.626Z,285
2018-05-11T09:25:28.535Z,280
2018-05-11T09:26:37.183Z,270
2018-05-11T09:27:45.829Z,265
2018-05-11T09:28:54.478Z,265
2018-05-11T09:30:03.137Z,190
2018-05-11T09:31:11.777Z,230
2018-05-11T09:32:20.426Z,185
2018-05-11T09:33:29.064Z,205
2018-05-11T09:34:37.715Z,260
2018-05-11T09:35:46.359Z,255
2018-05-11T09:36:55.015Z,195
2018-05-11T09:38:03.652Z,240
2018-05-11T09:39:12.304Z,275
2018-05-11T09:40:20.947Z,265
2018-05-11T09:41:29.602Z,280
2018-05-11T09:42:38.240Z,225
2018-05-11T09:43:46.890Z,240
2018-05-11T09:44:55.533Z,270
2018-05-11T09:46:04.191Z,280
2018-05-11T09:47:12.834Z,280
2018-05-11T09:48:21.745Z,265
2018-05-11T09:49:30.779Z,310
2018-05-11T09:50:39.403Z,330
2018-05-11T09:51:48.060Z,310
2018-05-11T09:52:56.710Z,285
2018-05-11T09:54:05.623Z,220
2018-05-11T09:55:14.655Z,265
2018-05-11T09:56:23.314Z,225
2018-05-11T09:57:31.958Z,270
2018-05-11T09:58:40.607Z,275
2018-05-11T09:59:49.245Z,280
2018-05-11T10:00:57.903Z,280
2018-05-11T10:02:06.550Z,285
2018-05-11T10:03:15.201Z,280
2018-05-11T10:04:23.841Z,235
2018-05-11T10:05:32.487Z,225
2018-05-11T10:06:41.139Z,290
2018-05-11T10:07:49.793Z,225
2018-05-11T10:08:58.441Z,210
2018-05-11T10:10:07.076Z,215
2018-05-11T10:11:15.993Z,230
2018-05-11T10:12:24.640Z,200
2018-05-11T10:13:33.311Z,190
2018-05-11T10:14:42.202Z,185
2018-05-11T10:15:50.853Z,190
2018-05-11T10:16:59.493Z,205
2018-05-11T10:18:08.150Z,295
2018-05-11T10:19:16.792Z,275
2018-05-11T10:20:25.708Z,315
2018-05-11T10:21:34.357Z,320
2018-05-11T10:22:43.277Z,305
2018-05-11T10:23:51.921Z,305
2018-05-11T10:25:00.568Z,315
2018-05-11T10:26:09.214Z,330
2018-05-11T10:27:18.126Z,340
2018-05-11T10:28:26.776Z,350
2018-05-11T10:29:35.424Z,345
2018-05-11T10:30:44.072Z,335
2018-05-11T10:31:52.717Z,305
2018-05-11T10:33:01.634Z,245
2018-05-11T10:34:10.275Z,240
2018-05-11T10:35:18.923Z,280
2018-05-11T10:36:27.564Z,350
2018-05-11T10:37:36.216Z,360
2018-05-11T10:38:44.861Z,375
2018-05-11T10:39:54.138Z,385
2018-05-11T10:41:02.710Z,360
2018-05-11T10:42:11.359Z,270
2018-05-11T10:43:20.271Z,245
2018-05-11T10:44:29.184Z,305
2018-05-11T10:45:37.840Z,305
2018-05-11T10:46:46.750Z,205
2018-05-11T10:47:55.665Z,200
2018-05-11T10:49:04.319Z,210
2018-05-11T10:50:12.979Z,220
2018-05-11T10:51:21.614Z,240
2018-05-11T10:52:30.263Z,245
2018-05-11T10:53:38.915Z,260
2018-05-11T10:54:47.567Z,250
2018-05-11T10:55:56.474Z,235
2018-05-11T10:57:05.393Z,235
2018-05-11T10:58:14.039Z,315
2018-05-11T10:59:22.955Z,275
2018-05-11T11:00:31.601Z,210
2018-05-11T11:01:40.248Z,190
2018-05-11T11:02:49.167Z,180
2018-05-11T11:03:57.810Z,205
2018-05-11T11:05:06.462Z,285
2018-05-11T11:06:15.379Z,280
2018-05-11T11:07:24.026Z,270
2018-05-11T11:08:32.672Z,255
2018-05-11T11:09:41.322Z,255
2018-05-11T11:10:49.970Z,260
2018-05-11T11:11:58.615Z,265
2018-05-11T11:13:07.258Z,280
2018-05-11T11:14:15.916Z,300
2018-05-11T11:15:24.556Z,260
2018-05-11T11:16:33.206Z,200
2018-05-11T11:17:41.849Z,185
2018-05-11T11:18:50.513Z,175
2018-05-11T11:19:59.153Z,165
2018-05-11T11:21:07.805Z,180
2018-05-11T11:22:16.454Z,185
2018-05-11T11:23:25.097Z,285
2018-05-11T11:24:33.743Z,295
2018-05-11T11:25:42.389Z,280
2018-05-11T11:26:51.044Z,265
2018-05-11T11:27:59.683Z,255
2018-05-11T11:29:08.338Z,260
2018-05-11T11:30:17.246Z,260
2018-05-11T11:31:25.903Z,260
2018-05-11T11:32:34.813Z,255
2018-05-11T11:33:43.723Z,245
2018-05-11T11:34:52.369Z,245
2018-05-11T11:36:01.289Z,240
2018-05-11T11:37:09.939Z,240
2018-05-11T11:38:18.848Z,245
2018-05-11T11:39:27.495Z,250
2018-05-11T11:40:36.423Z,250
2018-05-11T11:41:45.366Z,255
2018-05-11T11:42:53.990Z,260
2018-05-11T11:44:02.643Z,260
2018-05-11T11:45:11.284Z,265
2018-05-11T11:46:19.944Z,265
2018-05-11T11:47:28.676Z,260
2018-05-11T11:48:37.235Z,270
2018-05-11T11:49:45.873Z,250
2018-05-11T11:50:54.530Z,235
2018-05-11T11:52:03.174Z,225
2018-05-11T11:53:11.824Z,220
2018-05-11T11:54:20.464Z,220
2018-05-11T11:55:29.115Z,155
2018-05-11T11:56:37.769Z,235
2018-05-11T11:57:46.425Z,255
2018-05-11T11:58:55.076Z,255
2018-05-11T12:00:03.717Z,160
2018-05-11T12:01:12.368Z,135
2018-05-11T12:02:21.010Z,150
2018-05-11T12:03:29.665Z,140
2018-05-11T12:04:38.305Z,120
2018-05-11T12:05:46.958Z,155
2018-05-11T12:06:55.603Z,130
2018-05-11T12:08:04.263Z,220
2018-05-11T12:09:12.897Z,225
2018-05-11T12:10:21.550Z,220
2018-05-11T12:11:30.192Z,165
2018-05-11T12:12:38.845Z,205
2018-05-11T12:13:47.817Z,245
2018-05-11T12:14:56.467Z,150
2018-05-11T12:16:05.117Z,225
2018-05-11T12:17:13.764Z,220
2018-05-11T12:18:22.419Z,260
2018-05-11T12:19:31.064Z,245
2018-05-11T12:20:39.973Z,230
2018-05-11T12:21:48.632Z,225
2018-05-11T12:22:57.810Z,135
2018-05-11T12:24:06.461Z,175
2018-05-11T12:25:15.367Z,205
2018-05-11T12:26:24.041Z,225
2018-05-11T12:27:32.665Z,235
2018-05-11T12:28:41.316Z,235
2018-05-11T12:29:49.966Z,215
2018-05-11T12:30:58.621Z,215
2018-05-11T12:32:07.268Z,215
2018-05-11T12:33:15.910Z,225
2018-05-11T12:34:24.555Z,150
2018-05-11T12:35:33.202Z,205
2018-05-11T12:36:41.861Z,225
2018-05-11T12:37:50.772Z,220
2018-05-11T12:38:59.423Z,215
2018-05-11T12:40:08.068Z,215
2018-05-11T12:41:16.725Z,215
2018-05-11T12:42:25.370Z,220
2018-05-11T12:43:34.024Z,220
2018-05-11T12:44:42.665Z,220
2018-05-11T12:45:51.322Z,180
2018-05-11T12:46:59.969Z,160
2018-05-11T12:48:08.620Z,235
2018-05-11T12:49:17.526Z,245
2018-05-11T12:50:26.176Z,250
2018-05-11T12:51:34.830Z,245
2018-05-11T12:52:43.506Z,250
2018-05-11T12:53:52.428Z,260
2018-05-11T12:55:01.069Z,255
2018-05-11T12:56:09.721Z,245
2018-05-11T12:57:18.631Z,210
2018-05-11T12:58:27.285Z,210
2018-05-11T12:59:35.923Z,215
2018-05-11T13:00:44.577Z,225
2018-05-11T13:01:53.222Z,220
2018-05-11T13:03:01.878Z,220
2018-05-11T13:04:10.518Z,215
2018-05-11T13:05:19.701Z,220
2018-05-11T13:06:28.352Z,225
2018-05-11T13:07:37.006Z,220
2018-05-11T13:08:45.652Z,220
2018-05-11T13:09:54.296Z,225
2018-05-11T13:11:02.945Z,230
2018-05-11T13:12:11.855Z,230
2018-05-11T13:13:20.511Z,225
2018-05-11T13:14:29.159Z,195
2018-05-11T13:15:38.085Z,210
2018-05-11T13:16:46.724Z,215
2018-05-11T13:17:55.382Z,225
2018-05-11T13:19:04.033Z,225
2018-05-11T13:20:12.683Z,220
2018-05-11T13:21:21.327Z,215
2018-05-11T13:22:29.985Z,215
2018-05-11T13:23:38.896Z,210
2018-05-11T13:24:47.547Z,205
2018-05-11T13:25:56.191Z,205
2018-05-11T13:27:04.844Z,200
2018-05-11T13:28:13.492Z,195
2018-05-11T13:29:22.680Z,205
2018-05-11T13:30:31.650Z,205
2018-05-11T13:31:40.271Z,190
2018-05-11T13:32:48.932Z,200
2018-05-11T13:33:57.570Z,205
2018-05-11T13:35:06.222Z,205
2018-05-11T13:36:15.404Z,205
2018-05-11T13:37:24.050Z,205
2018-05-11T13:38:32.699Z,210
2018-05-11T13:39:41.390Z,205
2018-05-11T13:40:50.298Z,205
2018-05-11T13:41:58.950Z,205
2018-05-11T13:43:07.597Z,205
2018-05-11T13:44:16.250Z,205
2018-05-11T13:45:24.904Z,190
2018-05-11T13:46:33.548Z,175
2018-05-11T13:47:42.468Z,205
2018-05-11T13:48:51.113Z,205
2018-05-11T13:49:59.770Z,210
2018-05-11T13:51:08.421Z,200
2018-05-11T13:52:17.070Z,195
2018-05-11T13:53:25.715Z,190
2018-05-11T13:54:34.369Z,190
2018-05-11T13:55:43.018Z,185
2018-05-11T13:56:51.936Z,190
2018-05-11T13:58:00.581Z,190
2018-05-11T13:59:09.235Z,190
2018-05-11T14:00:17.877Z,190
2018-05-11T14:01:26.531Z,190
2018-05-11T14:02:35.176Z,190
2018-05-11T14:03:43.827Z,185
2018-05-11T14:04:52.473Z,185
2018-05-11T14:06:01.124Z,185
2018-05-11T14:07:09.776Z,185
2018-05-11T14:08:18.419Z,185
2018-05-11T14:09:27.067Z,180
2018-05-11T14:10:35.716Z,185
2018-05-11T14:11:44.899Z,180
2018-05-11T14:12:53.545Z,180
2018-05-11T14:14:02.194Z,180
2018-05-11T14:15:10.843Z,180
2018-05-11T14:16:19.758Z,180
2018-05-11T14:17:28.402Z,180
2018-05-11T14:18:37.320Z,180
2018-05-11T14:19:45.965Z,180
2018-05-11T14:20:55.156Z,190
2018-05-11T14:22:03.856Z,170
2018-05-11T14:23:12.449Z,170
2018-05-11T14:24:21.095Z,170
2018-05-11T14:25:29.742Z,170
2018-05-11T14:26:38.417Z,165
2018-05-11T14:27:47.066Z,165
2018-05-11T14:28:55.721Z,170
2018-05-11T14:30:04.363Z,165
2018-05-11T14:31:13.024Z,160
2018-05-11T14:32:21.669Z,160
2018-05-11T14:33:30.321Z,160
2018-05-11T14:34:39.226Z,160
2018-05-11T14:35:48.155Z,160
2018-05-11T14:36:56.810Z,155
2018-05-11T14:38:05.455Z,155
2018-05-11T14:39:14.120Z,155
2018-05-11T14:40:22.747Z,155
2018-05-11T14:41:31.402Z,155
2018-05-11T14:42:40.062Z,155
2018-05-11T14:43:48.708Z,155
2018-05-11T14:44:57.350Z,155
2018-05-11T14:46:06.271Z,155
2018-05-11T14:47:14.918Z,155
2018-05-11T14:48:23.572Z,155
2018-05-11T14:49:32.290Z,150
2018-05-11T14:50:40.864Z,150
2018-05-11T14:51:49.777Z,150
2018-05-11T14:52:58.435Z,155
2018-05-11T14:54:07.077Z,155
2018-05-11T14:55:15.728Z,150
2018-05-11T14:56:24.375Z,150
2018-05-11T14:57:33.033Z,150
2018-05-11T14:58:41.780Z,150
2018-05-11T14:59:50.322Z,150
2018-05-11T15:00:58.967Z,150
2018-05-11T15:02:07.613Z,150
2018-05-11T15:03:16.280Z,150
2018-05-11T15:04:24.929Z,150
2018-05-11T15:05:33.580Z,150
2018-05-11T15:06:42.485Z,150
2018-05-11T15:07:51.146Z,150
2018-05-11T15:08:59.787Z,150
2018-05-11T15:10:08.839Z,150
2018-05-11T15:11:17.436Z,150
2018-05-11T15:12:26.095Z,150
2018-05-11T15:13:34.743Z,150
2018-05-11T15:14:43.392Z,145
2018-05-11T15:15:52.034Z,145
2018-05-11T15:17:00.683Z,145
2018-05-11T15:18:09.332Z,145
2018-05-11T15:19:17.986Z,145
2018-05-11T15:20:26.638Z,145
2018-05-11T15:21:35.549Z,150
2018-05-11T15:22:44.193Z,140
2018-05-11T15:23:52.844Z,140
2018-05-11T15:25:01.497Z,140
2018-05-11T15:26:10.146Z,140
2018-05-11T15:27:18.791Z,140
2018-05-11T15:28:27.435Z,140
2018-05-11T15:29:36.089Z,140
2018-05-11T15:30:44.731Z,140
2018-05-11T15:31:53.384Z,140
2018-05-11T15:33:02.029Z,140
2018-05-11T15:34:10.688Z,140
2018-05-11T15:35:19.331Z,140
2018-05-11T15:36:28.253Z,140
2018-05-11T15:37:36.897Z,140
2018-05-11T15:38:45.546Z,140
2018-05-11T15:39:54.199Z,140
2018-05-11T15:41:02.850Z,140
2018-05-11T15:42:11.502Z,140
2018-05-11T15:43:20.411Z,140
2018-05-11T15:44:29.067Z,140
2018-05-11T15:45:37.981Z,135
2018-05-11T15:46:46.629Z,135
2018-05-11T15:47:55.273Z,140
2018-05-11T15:49:03.926Z,135
2018-05-11T15:50:12.573Z,135
2018-05-11T15:51:21.225Z,135
2018-05-11T15:52:29.870Z,135
2018-05-11T15:53:38.784Z,135
2018-05-11T15:54:47.432Z,135
2018-05-11T15:55:56.082Z,135
2018-05-11T15:57:05.000Z,135
2018-05-11T15:58:13.645Z,130
2018-05-11T15:59:22.558Z,130
2018-05-11T16:00:31.204Z,130
2018-05-11T16:01:39.858Z,130
2018-05-11T16:02:48.500Z,130
2018-05-11T16:03:57.418Z,125
2018-05-11T16:05:06.335Z,125
2018-05-11T16:06:14.988Z,120
2018-05-11T16:07:23.630Z,120
2018-05-11T16:08:32.545Z,120